Currently 45°F in San Jacinto, California, USA
45°F
46°F / 45°F
calm
0.00"
Tuesday, December 12, 2017 12:23 AM PST

San Jacinto, California Weather Summary
Last 36 Hours

Temperature Winds Hourly Humidity Dewpoint
Time Report Norm Report Norm Max Gusts Precip. Rpt. Norm Rpt. Norm Pressure
1Tue 12:23 AM  45.3°F  48°F  calm  1 mph  none  0.00"  27%  71%  12°F  38°F  30.33"
2Tue 12:15 AM  45.5°F  48°F  calm  1 mph  none  ----  26%  71%  11°F  38°F  30.32"
3Tue 12:00 AM  45.1°F  48°F  calm  1 mph  3 mph  0.00"  26%  71%  11°F  39°F  30.32"
Mon 11:00 PM  50.0°F  49°F  calm  1 mph  2 mph  0.00"  22%  68%  11°F  39°F  30.33"
Mon 10:00 PM  52.5°F  50°F  calm  1 mph  1 mph  0.00"  21%  67%  12°F  39°F  30.32"
Mon 09:00 PM  54.5°F  52°F  calm  1 mph  none  0.00"  20%  64%  12°F  39°F  30.31"
Mon 08:00 PM  58.2°F  53°F  calm  1 mph  1 mph  0.00"  17%  61%  12°F  40°F  30.31"
Mon 07:00 PM  64.1°F  55°F  calm  1 mph  3 mph  0.00"  13%  58%  10°F  40°F  30.30"
Mon 06:00 PM  66.9°F  57°F  1 mph S  1 mph  3 mph  0.00"  13%  53%  12°F  40°F  30.29"
Mon 05:00 PM  74.9°F  60°F  calm  2 mph  9 mph  0.00"  6%  48%  0°F  39°F  30.26"
Mon 04:00 PM  80.0°F  63°F  calm  2 mph  none  0.00"  7%  41%  8°F  38°F  30.25"
Mon 03:00 PM  81.2°F  64°F  calm  2 mph  3 mph  0.00"  6%  39%  5°F  38°F  30.25"
Mon 02:00 PM  78.7°F  64°F  calm  2 mph  3 mph  0.00"  8%  39%  10°F  38°F  30.26"
Mon 01:00 PM  77.6°F  64°F  calm  2 mph  none  0.00"  8%  40%  9°F  38°F  30.27"
Mon 12:00 PM  74.7°F  63°F  calm  2 mph  none  0.00"  12%  42%  17°F  38°F  30.29"
Mon 11:00 AM  68.4°F  60°F  calm  1 mph  none  0.00"  18%  47%  21°F  39°F  30.32"
Mon 10:00 AM  60.0°F  56°F  calm  1 mph  none  0.00"  26%  54%  24°F  39°F  30.34"
Mon 09:00 AM  56.9°F  52°F  calm  1 mph  none  0.00"  24%  62%  19°F  39°F  30.34"
Mon 08:00 AM  49.2°F  47°F  calm  1 mph  none  0.00"  33%  71%  20°F  38°F  30.32"
Mon 07:00 AM  45.2°F  44°F  calm  1 mph  none  0.00"  33%  75%  16°F  37°F  30.30"
Mon 06:00 AM  45.5°F  44°F  calm  1 mph  none  0.00"  32%  75%  16°F  37°F  30.29"
Mon 05:00 AM  48.1°F  45°F  calm  1 mph  none  0.00"  29%  75%  16°F  37°F  30.28"
Mon 04:00 AM  48.5°F  45°F  calm  1 mph  2 mph  0.00"  28%  74%  15°F  37°F  30.27"
Mon 03:00 AM  48.4°F  46°F  calm  1 mph  none  0.00"  29%  73%  16°F  37°F  30.29"
Mon 02:00 AM  50.3°F  47°F  calm  1 mph  1 mph  0.00"  29%  72%  18°F  38°F  30.30"
Mon 01:00 AM  52.3°F  47°F  calm  1 mph  none  0.00"  26%  70%  17°F  38°F  30.29"
Mon 12:00 AM  55.5°F  48°F  calm  1 mph  3 mph  0.00"  21%  69%  14°F  38°F  30.29"
Sun 11:00 PM  56.5°F  50°F  calm  1 mph  2 mph  0.00"  21%  66%  15°F  38°F  30.29"
Sun 10:00 PM  58.3°F  51°F  calm  1 mph  2 mph  0.00"  20%  65%  16°F  39°F  30.29"
Sun 09:00 PM  59.8°F  52°F  calm  1 mph  1 mph  0.00"  18%  62%  14°F  39°F  30.29"
Sun 08:00 PM  63.1°F  54°F  calm  1 mph  3 mph  0.00"  16%  59%  14°F  40°F  30.27"
Sun 07:00 PM  64.9°F  56°F  calm  1 mph  none  0.00"  15%  56%  14°F  40°F  30.26"
Sun 06:00 PM  68.5°F  58°F  calm  1 mph  2 mph  0.00"  13%  52%  14°F  39°F  30.24"
Sun 05:00 PM  73.3°F  60°F  calm  2 mph  10 mph  0.00"  10%  47%  11°F  39°F  30.21"
Sun 04:00 PM  74.8°F  64°F  2 mph N  2 mph  9 mph  0.00"  8%  39%  7°F  38°F  30.20"
Sun 03:00 PM  76.5°F  65°F  calm  2 mph  14 mph  0.00"  8%  37%  8°F  37°F  30.20"
Sun 02:00 PM  78.1°F  65°F  4 mph E  3 mph  10 mph  0.00"  8%  37%  9°F  37°F  30.19"
Sun 01:00 PM  80.0°F  65°F  1 mph NE  2 mph  11 mph  0.00"  7%  37%  8°F  37°F  30.20"
Sun 12:00 PM  79.9°F  63°F  calm  2 mph  7 mph  0.00"  9%  39%  14°F  37°F  30.23"

  1. Current weather data. No green row appears if the current weather data is also the high or low for the current day.
  2. High temperature for the current day.
  3. Low temperature for the current day.

The San Jacinto, California weather pages are a service of WeatherCurrents. San Jacinto is located in the heart of the San Jacinto Valley, near Hemet, the Soboba Casino, and at the foot of the San Jacinto Mountains.
Copyright ©Tue Dec 12 00:24:55 PST 2017  WeatherCurrents. All rights reserved. - Submit questions and comments - Privacy Policy

This page automatically refreshes every 10 minutes.